sensor_id;sensor_type;location;lat;lon;timestamp;P1;durP1;ratioP1;P2;durP2;ratioP2
22768;SDS011;13001;51.968;5.918;2022-10-12T00:00:37;223.27;;;208.33;;
22768;SDS011;13001;51.968;5.918;2022-10-12T00:03:04;214.10;;;199.93;;
22768;SDS011;13001;51.968;5.918;2022-10-12T00:05:31;189.57;;;177.23;;
22768;SDS011;13001;51.968;5.918;2022-10-12T00:07:59;201.37;;;187.20;;
22768;SDS011;13001;51.968;5.918;2022-10-12T00:10:26;204.27;;;189.73;;
22768;SDS011;13001;51.968;5.918;2022-10-12T00:12:53;219.83;;;204.07;;
22768;SDS011;13001;51.968;5.918;2022-10-12T00:15:20;200.63;;;186.73;;
22768;SDS011;13001;51.968;5.918;2022-10-12T00:17:48;215.17;;;200.90;;
22768;SDS011;13001;51.968;5.918;2022-10-12T00:20:15;228.10;;;212.63;;
22768;SDS011;13001;51.968;5.918;2022-10-12T00:22:42;238.47;;;222.33;;
22768;SDS011;13001;51.968;5.918;2022-10-12T00:25:09;233.30;;;217.00;;
22768;SDS011;13001;51.968;5.918;2022-10-12T00:27:37;234.17;;;217.93;;
22768;SDS011;13001;51.968;5.918;2022-10-12T00:30:04;220.67;;;206.35;;
22768;SDS011;13001;51.968;5.918;2022-10-12T00:32:31;231.87;;;216.63;;
22768;SDS011;13001;51.968;5.918;2022-10-12T00:34:59;219.73;;;204.80;;
22768;SDS011;13001;51.968;5.918;2022-10-12T00:52:08;221.30;;;206.93;;
22768;SDS011;13001;51.968;5.918;2022-10-12T00:54:37;227.60;;;211.50;;
22768;SDS011;13001;51.968;5.918;2022-10-12T00:57:04;230.47;;;214.77;;
22768;SDS011;13001;51.968;5.918;2022-10-12T00:59:41;224.73;;;209.67;;
22768;SDS011;13001;51.968;5.918;2022-10-12T01:02:03;198.60;;;185.87;;
22768;SDS011;13001;51.968;5.918;2022-10-12T01:04:31;197.37;;;184.53;;
22768;SDS011;13001;51.968;5.918;2022-10-12T01:06:59;190.97;;;178.57;;
22768;SDS011;13001;51.968;5.918;2022-10-12T01:09:27;194.57;;;181.67;;
22768;SDS011;13001;51.968;5.918;2022-10-12T01:11:55;197.73;;;184.00;;
22768;SDS011;13001;51.968;5.918;2022-10-12T01:14:23;202.87;;;188.97;;
22768;SDS011;13001;51.968;5.918;2022-10-12T01:16:58;211.13;;;197.40;;
22768;SDS011;13001;51.968;5.918;2022-10-12T01:21:59;197.83;;;184.77;;
22768;SDS011;13001;51.968;5.918;2022-10-12T01:24:48;206.00;;;192.30;;
22768;SDS011;13001;51.968;5.918;2022-10-12T01:32:21;205.87;;;191.60;;
22768;SDS011;13001;51.968;5.918;2022-10-12T01:34:52;205.20;;;191.30;;
22768;SDS011;13001;51.968;5.918;2022-10-12T01:37:22;208.17;;;193.73;;
22768;SDS011;13001;51.968;5.918;2022-10-12T01:39:52;197.77;;;184.57;;
22768;SDS011;13001;51.968;5.918;2022-10-12T01:42:30;242.67;;;224.37;;
22768;SDS011;13001;51.968;5.918;2022-10-12T01:45:07;239.67;;;221.73;;
22768;SDS011;13001;51.968;5.918;2022-10-12T01:47:30;261.48;;;242.43;;
22768;SDS011;13001;51.968;5.918;2022-10-12T01:49:59;225.40;;;210.50;;
22768;SDS011;13001;51.968;5.918;2022-10-12T01:52:29;217.10;;;201.83;;
22768;SDS011;13001;51.968;5.918;2022-10-12T01:55:05;200.57;;;186.87;;
22768;SDS011;13001;51.968;5.918;2022-10-12T02:00:06;208.97;;;194.50;;
22768;SDS011;13001;51.968;5.918;2022-10-12T02:02:40;185.53;;;172.93;;
22768;SDS011;13001;51.968;5.918;2022-10-12T02:07:52;178.07;;;165.53;;
22768;SDS011;13001;51.968;5.918;2022-10-12T02:10:21;175.27;;;162.87;;
22768;SDS011;13001;51.968;5.918;2022-10-12T02:12:48;184.27;;;171.30;;
22768;SDS011;13001;51.968;5.918;2022-10-12T02:15:17;203.60;;;189.13;;
22768;SDS011;13001;51.968;5.918;2022-10-12T02:17:45;285.98;;;267.02;;
22768;SDS011;13001;51.968;5.918;2022-10-12T02:20:13;200.80;;;187.43;;
22768;SDS011;13001;51.968;5.918;2022-10-12T02:22:41;260.93;;;241.85;;
22768;SDS011;13001;51.968;5.918;2022-10-12T02:25:11;186.57;;;172.60;;
22768;SDS011;13001;51.968;5.918;2022-10-12T02:27:39;168.73;;;156.77;;
22768;SDS011;13001;51.968;5.918;2022-10-12T02:30:08;171.70;;;159.80;;
22768;SDS011;13001;51.968;5.918;2022-10-12T02:33:19;167.60;;;156.03;;
22768;SDS011;13001;51.968;5.918;2022-10-12T02:35:26;186.30;;;173.73;;
22768;SDS011;13001;51.968;5.918;2022-10-12T02:37:55;175.67;;;163.70;;
22768;SDS011;13001;51.968;5.918;2022-10-12T02:40:27;189.37;;;176.37;;
22768;SDS011;13001;51.968;5.918;2022-10-12T02:42:55;290.55;;;271.30;;
22768;SDS011;13001;51.968;5.918;2022-10-12T02:45:24;201.13;;;186.83;;
22768;SDS011;13001;51.968;5.918;2022-10-12T02:47:52;207.00;;;192.87;;
22768;SDS011;13001;51.968;5.918;2022-10-12T02:50:20;203.73;;;189.10;;
22768;SDS011;13001;51.968;5.918;2022-10-12T02:52:48;236.00;;;219.17;;
22768;SDS011;13001;51.968;5.918;2022-10-12T02:55:15;231.03;;;213.73;;
22768;SDS011;13001;51.968;5.918;2022-10-12T02:57:43;245.60;;;227.50;;
22768;SDS011;13001;51.968;5.918;2022-10-12T03:00:10;264.43;;;244.27;;
22768;SDS011;13001;51.968;5.918;2022-10-12T03:02:38;245.40;;;227.73;;
22768;SDS011;13001;51.968;5.918;2022-10-12T03:05:05;259.97;;;240.57;;
22768;SDS011;13001;51.968;5.918;2022-10-12T03:07:32;261.13;;;241.60;;
22768;SDS011;13001;51.968;5.918;2022-10-12T03:09:59;275.60;;;255.00;;
22768;SDS011;13001;51.968;5.918;2022-10-12T03:12:27;252.60;;;233.97;;
22768;SDS011;13001;51.968;5.918;2022-10-12T03:14:54;245.20;;;226.67;;
22768;SDS011;13001;51.968;5.918;2022-10-12T03:17:21;267.17;;;247.13;;
22768;SDS011;13001;51.968;5.918;2022-10-12T03:19:49;252.43;;;233.97;;
22768;SDS011;13001;51.968;5.918;2022-10-12T03:22:16;244.20;;;226.77;;
22768;SDS011;13001;51.968;5.918;2022-10-12T03:24:43;224.27;;;207.63;;
22768;SDS011;13001;51.968;5.918;2022-10-12T03:27:10;204.50;;;189.73;;
22768;SDS011;13001;51.968;5.918;2022-10-12T03:29:38;190.83;;;177.10;;
22768;SDS011;13001;51.968;5.918;2022-10-12T03:32:05;201.10;;;186.87;;
22768;SDS011;13001;51.968;5.918;2022-10-12T03:34:32;186.27;;;173.40;;
22768;SDS011;13001;51.968;5.918;2022-10-12T03:36:59;187.00;;;174.00;;
22768;SDS011;13001;51.968;5.918;2022-10-12T03:39:27;192.83;;;179.40;;
22768;SDS011;13001;51.968;5.918;2022-10-12T03:41:54;181.60;;;169.30;;
22768;SDS011;13001;51.968;5.918;2022-10-12T03:49:14;192.73;;;178.93;;
22768;SDS011;13001;51.968;5.918;2022-10-12T03:51:41;214.23;;;198.77;;
22768;SDS011;13001;51.968;5.918;2022-10-12T03:54:09;204.77;;;190.53;;
22768;SDS011;13001;51.968;5.918;2022-10-12T03:56:36;206.47;;;191.77;;
22768;SDS011;13001;51.968;5.918;2022-10-12T03:59:03;219.17;;;203.67;;
22768;SDS011;13001;51.968;5.918;2022-10-12T04:01:31;215.80;;;200.17;;
22768;SDS011;13001;51.968;5.918;2022-10-12T04:03:58;198.03;;;183.97;;
22768;SDS011;13001;51.968;5.918;2022-10-12T04:06:25;193.17;;;179.50;;
22768;SDS011;13001;51.968;5.918;2022-10-12T04:08:53;197.97;;;184.13;;
22768;SDS011;13001;51.968;5.918;2022-10-12T04:11:20;215.07;;;199.53;;
22768;SDS011;13001;51.968;5.918;2022-10-12T04:13:47;209.00;;;194.03;;
22768;SDS011;13001;51.968;5.918;2022-10-12T04:16:14;178.17;;;165.57;;
22768;SDS011;13001;51.968;5.918;2022-10-12T04:18:42;181.40;;;168.80;;
22768;SDS011;13001;51.968;5.918;2022-10-12T04:21:10;189.30;;;175.77;;
22768;SDS011;13001;51.968;5.918;2022-10-12T04:23:39;211.30;;;195.60;;
22768;SDS011;13001;51.968;5.918;2022-10-12T04:26:06;210.50;;;195.17;;
22768;SDS011;13001;51.968;5.918;2022-10-12T04:28:34;194.47;;;179.80;;
22768;SDS011;13001;51.968;5.918;2022-10-12T04:31:01;208.40;;;192.97;;
22768;SDS011;13001;51.968;5.918;2022-10-12T04:33:29;211.57;;;195.33;;
22768;SDS011;13001;51.968;5.918;2022-10-12T04:35:56;231.40;;;213.57;;
22768;SDS011;13001;51.968;5.918;2022-10-12T04:38:23;229.47;;;211.97;;
22768;SDS011;13001;51.968;5.918;2022-10-12T04:40:50;237.00;;;219.13;;
22768;SDS011;13001;51.968;5.918;2022-10-12T04:43:18;216.83;;;200.83;;
22768;SDS011;13001;51.968;5.918;2022-10-12T04:45:52;214.10;;;198.63;;
22768;SDS011;13001;51.968;5.918;2022-10-12T04:48:14;225.07;;;208.50;;
22768;SDS011;13001;51.968;5.918;2022-10-12T04:50:41;197.40;;;182.97;;
22768;SDS011;13001;51.968;5.918;2022-10-12T04:53:09;216.63;;;200.87;;
22768;SDS011;13001;51.968;5.918;2022-10-12T04:55:36;222.60;;;206.47;;
22768;SDS011;13001;51.968;5.918;2022-10-12T04:58:03;212.10;;;196.10;;
22768;SDS011;13001;51.968;5.918;2022-10-12T05:00:31;201.53;;;186.70;;
22768;SDS011;13001;51.968;5.918;2022-10-12T05:02:58;223.90;;;206.83;;
22768;SDS011;13001;51.968;5.918;2022-10-12T05:05:25;196.63;;;182.33;;
22768;SDS011;13001;51.968;5.918;2022-10-12T05:07:53;195.03;;;180.47;;
22768;SDS011;13001;51.968;5.918;2022-10-12T05:10:21;216.60;;;200.57;;
22768;SDS011;13001;51.968;5.918;2022-10-12T05:12:48;210.57;;;194.60;;
22768;SDS011;13001;51.968;5.918;2022-10-12T05:15:15;211.30;;;195.67;;
22768;SDS011;13001;51.968;5.918;2022-10-12T05:17:42;212.13;;;196.47;;
22768;SDS011;13001;51.968;5.918;2022-10-12T05:20:10;205.07;;;189.77;;
22768;SDS011;13001;51.968;5.918;2022-10-12T05:22:37;206.90;;;192.13;;
22768;SDS011;13001;51.968;5.918;2022-10-12T05:25:05;216.87;;;200.67;;
22768;SDS011;13001;51.968;5.918;2022-10-12T05:27:33;204.53;;;190.13;;
22768;SDS011;13001;51.968;5.918;2022-10-12T05:30:00;212.50;;;196.47;;
22768;SDS011;13001;51.968;5.918;2022-10-12T05:32:27;230.43;;;213.97;;
22768;SDS011;13001;51.968;5.918;2022-10-12T05:34:54;231.70;;;214.63;;
22768;SDS011;13001;51.968;5.918;2022-10-12T05:37:22;217.53;;;202.00;;
22768;SDS011;13001;51.968;5.918;2022-10-12T05:39:49;226.23;;;209.70;;
22768;SDS011;13001;51.968;5.918;2022-10-12T05:42:17;232.83;;;215.40;;
22768;SDS011;13001;51.968;5.918;2022-10-12T05:44:44;224.43;;;207.90;;
22768;SDS011;13001;51.968;5.918;2022-10-12T05:47:12;205.23;;;190.20;;
22768;SDS011;13001;51.968;5.918;2022-10-12T05:49:39;221.13;;;204.33;;
22768;SDS011;13001;51.968;5.918;2022-10-12T05:52:06;216.03;;;200.10;;
22768;SDS011;13001;51.968;5.918;2022-10-12T05:54:33;226.47;;;209.97;;
22768;SDS011;13001;51.968;5.918;2022-10-12T05:57:01;214.47;;;198.33;;
22768;SDS011;13001;51.968;5.918;2022-10-12T05:59:28;220.43;;;204.50;;
22768;SDS011;13001;51.968;5.918;2022-10-12T06:01:55;210.13;;;195.10;;
22768;SDS011;13001;51.968;5.918;2022-10-12T06:04:22;190.83;;;176.93;;
22768;SDS011;13001;51.968;5.918;2022-10-12T06:06:50;207.57;;;192.43;;
22768;SDS011;13001;51.968;5.918;2022-10-12T06:09:17;212.83;;;197.17;;
22768;SDS011;13001;51.968;5.918;2022-10-12T06:11:44;209.03;;;193.37;;
22768;SDS011;13001;51.968;5.918;2022-10-12T06:14:13;214.23;;;198.27;;
22768;SDS011;13001;51.968;5.918;2022-10-12T06:16:40;209.03;;;193.00;;
22768;SDS011;13001;51.968;5.918;2022-10-12T06:19:09;204.93;;;189.23;;
22768;SDS011;13001;51.968;5.918;2022-10-12T06:21:36;172.03;;;159.30;;
22768;SDS011;13001;51.968;5.918;2022-10-12T06:24:03;159.27;;;146.80;;
22768;SDS011;13001;51.968;5.918;2022-10-12T06:26:31;166.50;;;154.10;;
22768;SDS011;13001;51.968;5.918;2022-10-12T06:28:58;170.67;;;158.63;;
22768;SDS011;13001;51.968;5.918;2022-10-12T06:31:26;172.97;;;160.27;;
22768;SDS011;13001;51.968;5.918;2022-10-12T06:33:54;182.73;;;168.97;;
22768;SDS011;13001;51.968;5.918;2022-10-12T06:36:21;418.02;;;384.87;;
22768;SDS011;13001;51.968;5.918;2022-10-12T06:38:49;291.93;;;269.93;;
22768;SDS011;13001;51.968;5.918;2022-10-12T06:41:16;292.87;;;270.93;;
22768;SDS011;13001;51.968;5.918;2022-10-12T06:43:43;295.77;;;272.23;;
22768;SDS011;13001;51.968;5.918;2022-10-12T06:46:11;208.83;;;193.57;;
22768;SDS011;13001;51.968;5.918;2022-10-12T06:48:38;196.77;;;183.27;;
22768;SDS011;13001;51.968;5.918;2022-10-12T06:51:05;199.40;;;186.03;;
22768;SDS011;13001;51.968;5.918;2022-10-12T06:53:32;199.37;;;185.73;;
22768;SDS011;13001;51.968;5.918;2022-10-12T06:56:06;200.90;;;187.47;;
22768;SDS011;13001;51.968;5.918;2022-10-12T06:58:34;211.23;;;196.90;;
22768;SDS011;13001;51.968;5.918;2022-10-12T07:01:02;197.03;;;184.07;;
22768;SDS011;13001;51.968;5.918;2022-10-12T07:03:31;197.57;;;184.80;;
22768;SDS011;13001;51.968;5.918;2022-10-12T07:06:08;231.57;;;215.73;;
22768;SDS011;13001;51.968;5.918;2022-10-12T07:08:33;225.80;;;210.17;;
22768;SDS011;13001;51.968;5.918;2022-10-12T07:11:00;209.17;;;195.20;;
22768;SDS011;13001;51.968;5.918;2022-10-12T07:13:28;223.20;;;208.27;;
22768;SDS011;13001;51.968;5.918;2022-10-12T07:15:55;236.20;;;219.70;;
22768;SDS011;13001;51.968;5.918;2022-10-12T07:18:22;220.97;;;205.83;;
22768;SDS011;13001;51.968;5.918;2022-10-12T07:20:50;209.60;;;194.90;;
22768;SDS011;13001;51.968;5.918;2022-10-12T07:23:17;208.43;;;193.97;;
22768;SDS011;13001;51.968;5.918;2022-10-12T07:25:52;224.93;;;209.83;;
22768;SDS011;13001;51.968;5.918;2022-10-12T07:28:16;230.47;;;215.13;;
22768;SDS011;13001;51.968;5.918;2022-10-12T07:30:44;192.57;;;177.97;;
22768;SDS011;13001;51.968;5.918;2022-10-12T07:33:11;210.63;;;195.87;;
22768;SDS011;13001;51.968;5.918;2022-10-12T07:35:38;256.53;;;239.43;;
22768;SDS011;13001;51.968;5.918;2022-10-12T07:38:06;317.13;;;296.50;;
22768;SDS011;13001;51.968;5.918;2022-10-12T07:40:33;363.50;;;339.97;;
22768;SDS011;13001;51.968;5.918;2022-10-12T07:43:00;429.10;;;398.47;;
22768;SDS011;13001;51.968;5.918;2022-10-12T07:45:27;472.30;;;435.93;;
22768;SDS011;13001;51.968;5.918;2022-10-12T07:47:55;517.77;;;477.20;;
22768;SDS011;13001;51.968;5.918;2022-10-12T07:50:22;506.03;;;466.80;;
22768;SDS011;13001;51.968;5.918;2022-10-12T07:52:50;489.17;;;449.90;;
22768;SDS011;13001;51.968;5.918;2022-10-12T07:55:17;523.30;;;482.60;;
22768;SDS011;13001;51.968;5.918;2022-10-12T07:57:45;519.93;;;480.07;;
22768;SDS011;13001;51.968;5.918;2022-10-12T08:00:12;492.47;;;458.33;;
22768;SDS011;13001;51.968;5.918;2022-10-12T08:02:39;474.37;;;441.73;;
22768;SDS011;13001;51.968;5.918;2022-10-12T08:05:07;417.30;;;389.60;;
22768;SDS011;13001;51.968;5.918;2022-10-12T08:07:34;385.67;;;361.33;;
22768;SDS011;13001;51.968;5.918;2022-10-12T08:10:01;351.37;;;329.30;;
22768;SDS011;13001;51.968;5.918;2022-10-12T08:12:29;425.03;;;397.43;;
22768;SDS011;13001;51.968;5.918;2022-10-12T08:14:56;501.27;;;466.77;;
22768;SDS011;13001;51.968;5.918;2022-10-12T08:17:23;529.43;;;491.67;;
22768;SDS011;13001;51.968;5.918;2022-10-12T08:19:50;481.53;;;448.23;;
22768;SDS011;13001;51.968;5.918;2022-10-12T08:24:44;441.45;;;409.75;;
22768;SDS011;13001;51.968;5.918;2022-10-12T08:27:11;536.40;;;498.90;;
22768;SDS011;13001;51.968;5.918;2022-10-12T08:29:39;572.85;;;534.77;;
22768;SDS011;13001;51.968;5.918;2022-10-12T08:32:06;433.83;;;404.60;;
22768;SDS011;13001;51.968;5.918;2022-10-12T08:34:33;516.83;;;478.40;;
22768;SDS011;13001;51.968;5.918;2022-10-12T08:37:01;515.73;;;479.00;;
22768;SDS011;13001;51.968;5.918;2022-10-12T08:39:28;487.02;;;452.75;;
22768;SDS011;13001;51.968;5.918;2022-10-12T08:42:02;593.30;;;551.55;;
22768;SDS011;13001;51.968;5.918;2022-10-12T08:47:12;532.12;;;495.00;;
22768;SDS011;13001;51.968;5.918;2022-10-12T08:49:39;501.45;;;467.20;;
22768;SDS011;13001;51.968;5.918;2022-10-12T08:52:19;556.90;;;522.75;;
22768;SDS011;13001;51.968;5.918;2022-10-12T08:54:42;664.40;;;622.60;;
22768;SDS011;13001;51.968;5.918;2022-10-12T08:57:19;662.48;;;620.42;;
22768;SDS011;13001;51.968;5.918;2022-10-12T08:59:43;701.33;;;653.23;;
22768;SDS011;13001;51.968;5.918;2022-10-12T09:02:20;767.63;;;711.17;;
22768;SDS011;13001;51.968;5.918;2022-10-12T09:10:05;589.73;;;547.10;;
22768;SDS011;13001;51.968;5.918;2022-10-12T09:15:15;485.63;;;452.88;;
22768;SDS011;13001;51.968;5.918;2022-10-12T09:17:48;550.02;;;510.73;;
22768;SDS011;13001;51.968;5.918;2022-10-12T09:22:58;519.05;;;484.48;;
22768;SDS011;13001;51.968;5.918;2022-10-12T09:25:26;570.93;;;530.60;;
22768;SDS011;13001;51.968;5.918;2022-10-12T09:27:56;549.60;;;509.03;;
22768;SDS011;13001;51.968;5.918;2022-10-12T09:30:23;583.87;;;539.08;;
22768;SDS011;13001;51.968;5.918;2022-10-12T09:32:54;632.60;;;582.83;;
22768;SDS011;13001;51.968;5.918;2022-10-12T09:35:20;636.58;;;582.80;;
22768;SDS011;13001;51.968;5.918;2022-10-12T09:37:49;623.37;;;572.23;;
22768;SDS011;13001;51.968;5.918;2022-10-12T09:40:19;611.83;;;562.12;;
22768;SDS011;13001;51.968;5.918;2022-10-12T09:42:45;614.45;;;564.32;;
22768;SDS011;13001;51.968;5.918;2022-10-12T09:45:15;616.65;;;569.28;;
22768;SDS011;13001;51.968;5.918;2022-10-12T09:47:42;691.02;;;633.98;;
22768;SDS011;13001;51.968;5.918;2022-10-12T09:50:10;563.77;;;517.67;;
22768;SDS011;13001;51.968;5.918;2022-10-12T09:52:42;512.12;;;475.18;;
22768;SDS011;13001;51.968;5.918;2022-10-12T09:57:50;503.02;;;465.82;;
22768;SDS011;13001;51.968;5.918;2022-10-12T10:02:50;424.38;;;395.18;;
22768;SDS011;13001;51.968;5.918;2022-10-12T10:05:22;502.80;;;468.85;;
22768;SDS011;13001;51.968;5.918;2022-10-12T10:07:51;452.90;;;424.03;;
22768;SDS011;13001;51.968;5.918;2022-10-12T10:10:20;455.30;;;424.85;;
22768;SDS011;13001;51.968;5.918;2022-10-12T10:12:48;446.77;;;416.05;;
22768;SDS011;13001;51.968;5.918;2022-10-12T10:15:23;456.80;;;425.35;;
22768;SDS011;13001;51.968;5.918;2022-10-12T10:17:48;564.30;;;524.33;;
22768;SDS011;13001;51.968;5.918;2022-10-12T10:20:28;579.55;;;539.75;;
22768;SDS011;13001;51.968;5.918;2022-10-12T10:22:55;607.85;;;566.12;;
22768;SDS011;13001;51.968;5.918;2022-10-12T10:25:23;568.73;;;530.05;;
22768;SDS011;13001;51.968;5.918;2022-10-12T10:30:36;468.73;;;434.45;;
22768;SDS011;13001;51.968;5.918;2022-10-12T10:33:12;580.67;;;539.73;;
22768;SDS011;13001;51.968;5.918;2022-10-12T10:35:32;473.52;;;436.60;;
22768;SDS011;13001;51.968;5.918;2022-10-12T10:37:59;502.27;;;465.63;;
22768;SDS011;13001;51.968;5.918;2022-10-12T10:40:29;506.37;;;467.75;;
22768;SDS011;13001;51.968;5.918;2022-10-12T10:42:58;497.57;;;459.80;;
22768;SDS011;13001;51.968;5.918;2022-10-12T10:45:26;500.32;;;461.08;;
22768;SDS011;13001;51.968;5.918;2022-10-12T10:47:54;474.85;;;437.72;;
22768;SDS011;13001;51.968;5.918;2022-10-12T10:50:29;502.10;;;462.08;;
22768;SDS011;13001;51.968;5.918;2022-10-12T10:52:54;581.50;;;536.62;;
22768;SDS011;13001;51.968;5.918;2022-10-12T10:55:28;529.15;;;487.05;;
22768;SDS011;13001;51.968;5.918;2022-10-12T10:57:57;522.10;;;480.18;;
22768;SDS011;13001;51.968;5.918;2022-10-12T11:00:22;524.40;;;483.90;;
22768;SDS011;13001;51.968;5.918;2022-10-12T11:02:51;620.07;;;577.37;;
22768;SDS011;13001;51.968;5.918;2022-10-12T11:05:31;520.52;;;483.83;;
22768;SDS011;13001;51.968;5.918;2022-10-12T11:08:04;541.20;;;500.80;;
22768;SDS011;13001;51.968;5.918;2022-10-12T11:13:11;528.33;;;488.95;;
22768;SDS011;13001;51.968;5.918;2022-10-12T11:15:37;479.92;;;444.82;;
22768;SDS011;13001;51.968;5.918;2022-10-12T11:18:10;477.47;;;442.12;;
22768;SDS011;13001;51.968;5.918;2022-10-12T11:23:28;512.03;;;473.23;;
22768;SDS011;13001;51.968;5.918;2022-10-12T11:25:59;442.33;;;411.73;;
22768;SDS011;13001;51.968;5.918;2022-10-12T11:28:27;406.87;;;379.13;;
22768;SDS011;13001;51.968;5.918;2022-10-12T11:30:56;420.95;;;392.23;;
22768;SDS011;13001;51.968;5.918;2022-10-12T11:33:25;469.50;;;437.42;;
22768;SDS011;13001;51.968;5.918;2022-10-12T11:35:52;494.10;;;460.87;;
22768;SDS011;13001;51.968;5.918;2022-10-12T11:38:30;511.82;;;477.35;;
22768;SDS011;13001;51.968;5.918;2022-10-12T11:41:03;496.07;;;462.82;;
22768;SDS011;13001;51.968;5.918;2022-10-12T11:43:32;470.60;;;440.43;;
22768;SDS011;13001;51.968;5.918;2022-10-12T11:46:01;468.97;;;437.98;;
22768;SDS011;13001;51.968;5.918;2022-10-12T11:48:30;476.77;;;445.57;;
22768;SDS011;13001;51.968;5.918;2022-10-12T11:50:57;538.67;;;503.00;;
22768;SDS011;13001;51.968;5.918;2022-10-12T11:53:29;521.80;;;487.23;;
22768;SDS011;13001;51.968;5.918;2022-10-12T11:58:40;565.83;;;527.70;;
22768;SDS011;13001;51.968;5.918;2022-10-12T12:08:56;595.42;;;554.33;;
22768;SDS011;13001;51.968;5.918;2022-10-12T12:11:25;615.63;;;571.90;;
22768;SDS011;13001;51.968;5.918;2022-10-12T17:17:13;257.50;;;239.63;;
22768;SDS011;13001;51.968;5.918;2022-10-12T17:19:40;284.83;;;264.60;;
22768;SDS011;13001;51.968;5.918;2022-10-12T17:22:08;249.67;;;231.07;;
22768;SDS011;13001;51.968;5.918;2022-10-12T17:24:37;370.47;;;343.73;;
22768;SDS011;13001;51.968;5.918;2022-10-12T17:27:05;437.90;;;404.23;;
22768;SDS011;13001;51.968;5.918;2022-10-12T17:29:33;376.03;;;347.80;;
22768;SDS011;13001;51.968;5.918;2022-10-12T17:32:07;334.17;;;309.23;;
22768;SDS011;13001;51.968;5.918;2022-10-12T17:34:36;281.77;;;261.53;;
22768;SDS011;13001;51.968;5.918;2022-10-12T17:37:05;319.10;;;296.60;;
22768;SDS011;13001;51.968;5.918;2022-10-12T17:39:33;348.20;;;323.97;;
22768;SDS011;13001;51.968;5.918;2022-10-12T17:42:01;343.43;;;319.97;;
22768;SDS011;13001;51.968;5.918;2022-10-12T17:44:29;341.40;;;318.03;;
22768;SDS011;13001;51.968;5.918;2022-10-12T17:46:56;313.90;;;292.33;;
22768;SDS011;13001;51.968;5.918;2022-10-12T17:49:24;314.20;;;292.43;;
22768;SDS011;13001;51.968;5.918;2022-10-12T17:51:54;338.80;;;315.90;;
22768;SDS011;13001;51.968;5.918;2022-10-12T17:54:22;367.63;;;340.17;;
22768;SDS011;13001;51.968;5.918;2022-10-12T17:56:52;445.73;;;411.53;;
22768;SDS011;13001;51.968;5.918;2022-10-12T17:59:19;586.20;;;541.17;;
22768;SDS011;13001;51.968;5.918;2022-10-12T18:01:47;560.40;;;515.60;;
22768;SDS011;13001;51.968;5.918;2022-10-12T18:04:14;491.07;;;450.60;;
22768;SDS011;13001;51.968;5.918;2022-10-12T18:06:42;429.77;;;393.07;;
22768;SDS011;13001;51.968;5.918;2022-10-12T18:09:11;436.43;;;398.77;;
22768;SDS011;13001;51.968;5.918;2022-10-12T18:11:38;538.60;;;497.98;;
22768;SDS011;13001;51.968;5.918;2022-10-12T18:14:08;382.17;;;353.20;;
22768;SDS011;13001;51.968;5.918;2022-10-12T18:16:36;412.03;;;379.13;;
22768;SDS011;13001;51.968;5.918;2022-10-12T18:19:04;381.00;;;348.13;;
22768;SDS011;13001;51.968;5.918;2022-10-12T18:21:32;393.47;;;361.23;;
22768;SDS011;13001;51.968;5.918;2022-10-12T18:24:00;399.40;;;367.23;;
22768;SDS011;13001;51.968;5.918;2022-10-12T18:26:27;410.10;;;377.27;;
22768;SDS011;13001;51.968;5.918;2022-10-12T18:28:57;381.13;;;350.70;;
22768;SDS011;13001;51.968;5.918;2022-10-12T18:31:25;385.27;;;355.40;;
22768;SDS011;13001;51.968;5.918;2022-10-12T18:33:53;422.97;;;389.03;;
22768;SDS011;13001;51.968;5.918;2022-10-12T18:36:21;401.80;;;370.27;;
22768;SDS011;13001;51.968;5.918;2022-10-12T18:38:48;401.47;;;370.20;;
22768;SDS011;13001;51.968;5.918;2022-10-12T18:41:16;411.27;;;378.37;;
22768;SDS011;13001;51.968;5.918;2022-10-12T18:43:46;376.67;;;347.60;;
22768;SDS011;13001;51.968;5.918;2022-10-12T18:46:14;319.77;;;296.90;;
22768;SDS011;13001;51.968;5.918;2022-10-12T18:48:43;340.90;;;316.90;;
22768;SDS011;13001;51.968;5.918;2022-10-12T18:51:18;329.23;;;305.60;;
22768;SDS011;13001;51.968;5.918;2022-10-12T18:53:45;273.80;;;255.50;;
22768;SDS011;13001;51.968;5.918;2022-10-12T18:56:12;280.63;;;261.47;;
22768;SDS011;13001;51.968;5.918;2022-10-12T18:58:39;276.07;;;256.97;;
22768;SDS011;13001;51.968;5.918;2022-10-12T19:01:11;251.57;;;234.43;;
22768;SDS011;13001;51.968;5.918;2022-10-12T19:03:39;278.37;;;259.87;;
22768;SDS011;13001;51.968;5.918;2022-10-12T19:06:08;247.00;;;230.13;;
22768;SDS011;13001;51.968;5.918;2022-10-12T19:08:35;258.57;;;241.10;;
22768;SDS011;13001;51.968;5.918;2022-10-12T19:11:06;215.90;;;201.67;;
22768;SDS011;13001;51.968;5.918;2022-10-12T19:13:34;228.43;;;213.37;;
22768;SDS011;13001;51.968;5.918;2022-10-12T19:16:02;239.77;;;223.30;;
22768;SDS011;13001;51.968;5.918;2022-10-12T19:18:30;235.90;;;219.67;;
22768;SDS011;13001;51.968;5.918;2022-10-12T19:21:00;237.43;;;220.93;;
22768;SDS011;13001;51.968;5.918;2022-10-12T19:23:26;240.67;;;224.30;;
22768;SDS011;13001;51.968;5.918;2022-10-12T19:25:54;240.77;;;224.40;;
22768;SDS011;13001;51.968;5.918;2022-10-12T19:28:21;226.57;;;211.30;;
22768;SDS011;13001;51.968;5.918;2022-10-12T19:30:49;243.80;;;227.03;;
22768;SDS011;13001;51.968;5.918;2022-10-12T19:33:16;248.37;;;231.30;;
22768;SDS011;13001;51.968;5.918;2022-10-12T19:35:43;251.30;;;233.60;;
22768;SDS011;13001;51.968;5.918;2022-10-12T19:38:10;262.20;;;244.20;;
22768;SDS011;13001;51.968;5.918;2022-10-12T19:40:38;280.57;;;260.60;;
22768;SDS011;13001;51.968;5.918;2022-10-12T19:43:05;283.47;;;263.70;;
22768;SDS011;13001;51.968;5.918;2022-10-12T19:45:36;302.33;;;280.50;;
22768;SDS011;13001;51.968;5.918;2022-10-12T19:48:01;330.73;;;305.93;;
22768;SDS011;13001;51.968;5.918;2022-10-12T19:50:28;343.73;;;317.20;;
22768;SDS011;13001;51.968;5.918;2022-10-12T19:52:56;350.20;;;323.50;;
22768;SDS011;13001;51.968;5.918;2022-10-12T19:55:23;345.03;;;318.70;;
22768;SDS011;13001;51.968;5.918;2022-10-12T19:57:50;341.03;;;315.60;;
22768;SDS011;13001;51.968;5.918;2022-10-12T20:00:18;326.10;;;301.07;;
22768;SDS011;13001;51.968;5.918;2022-10-12T20:02:45;323.10;;;299.23;;
22768;SDS011;13001;51.968;5.918;2022-10-12T20:05:12;328.90;;;304.73;;
22768;SDS011;13001;51.968;5.918;2022-10-12T20:07:39;320.23;;;296.23;;
22768;SDS011;13001;51.968;5.918;2022-10-12T20:10:07;317.43;;;293.87;;
22768;SDS011;13001;51.968;5.918;2022-10-12T20:12:34;323.20;;;298.67;;
22768;SDS011;13001;51.968;5.918;2022-10-12T20:15:01;325.30;;;301.03;;
22768;SDS011;13001;51.968;5.918;2022-10-12T20:17:28;358.00;;;330.63;;